sensor_id;sensor_type;location;lat;lon;timestamp;temperature;humidity
59309;DHT22;48433;53.016;-2.260;2023-08-30T00:00:31;15.40;99.90
59309;DHT22;48433;53.016;-2.260;2023-08-30T00:02:58;15.40;99.90
59309;DHT22;48433;53.016;-2.260;2023-08-30T00:05:27;15.40;99.90
59309;DHT22;48433;53.016;-2.260;2023-08-30T00:07:55;15.20;99.90
59309;DHT22;48433;53.016;-2.260;2023-08-30T00:10:23;15.20;99.90
59309;DHT22;48433;53.016;-2.260;2023-08-30T00:12:51;15.00;99.90
59309;DHT22;48433;53.016;-2.260;2023-08-30T00:15:19;15.00;99.90
59309;DHT22;48433;53.016;-2.260;2023-08-30T00:17:47;15.00;99.90
59309;DHT22;48433;53.016;-2.260;2023-08-30T00:20:15;14.90;99.90
59309;DHT22;48433;53.016;-2.260;2023-08-30T00:22:43;15.00;99.90
59309;DHT22;48433;53.016;-2.260;2023-08-30T00:25:10;15.00;99.90
59309;DHT22;48433;53.016;-2.260;2023-08-30T00:27:38;14.90;99.90
59309;DHT22;48433;53.016;-2.260;2023-08-30T00:30:06;15.00;99.90
59309;DHT22;48433;53.016;-2.260;2023-08-30T00:32:36;15.00;99.90
59309;DHT22;48433;53.016;-2.260;2023-08-30T00:35:04;15.10;99.90
59309;DHT22;48433;53.016;-2.260;2023-08-30T00:37:31;15.10;99.90
59309;DHT22;48433;53.016;-2.260;2023-08-30T00:39:59;15.20;99.90
59309;DHT22;48433;53.016;-2.260;2023-08-30T00:42:27;15.10;99.90
59309;DHT22;48433;53.016;-2.260;2023-08-30T00:44:55;15.10;99.90
59309;DHT22;48433;53.016;-2.260;2023-08-30T00:47:22;15.00;99.90
59309;DHT22;48433;53.016;-2.260;2023-08-30T00:49:51;15.00;99.90
59309;DHT22;48433;53.016;-2.260;2023-08-30T00:52:18;15.00;99.90
59309;DHT22;48433;53.016;-2.260;2023-08-30T00:54:46;14.90;99.90
59309;DHT22;48433;53.016;-2.260;2023-08-30T00:57:14;14.80;99.90
59309;DHT22;48433;53.016;-2.260;2023-08-30T00:59:42;14.80;99.90
59309;DHT22;48433;53.016;-2.260;2023-08-30T01:02:10;14.80;99.90
59309;DHT22;48433;53.016;-2.260;2023-08-30T01:04:38;14.70;99.90
59309;DHT22;48433;53.016;-2.260;2023-08-30T01:07:06;14.70;99.90
59309;DHT22;48433;53.016;-2.260;2023-08-30T01:09:34;14.60;99.90
59309;DHT22;48433;53.016;-2.260;2023-08-30T01:12:09;14.60;99.90
59309;DHT22;48433;53.016;-2.260;2023-08-30T01:15:04;14.60;99.90
59309;DHT22;48433;53.016;-2.260;2023-08-30T01:17:34;14.70;99.90
59309;DHT22;48433;53.016;-2.260;2023-08-30T01:20:07;14.70;99.90
59309;DHT22;48433;53.016;-2.260;2023-08-30T01:26:02;14.70;99.90
59309;DHT22;48433;53.016;-2.260;2023-08-30T01:28:33;14.60;99.90
59309;DHT22;48433;53.016;-2.260;2023-08-30T01:31:02;14.60;99.90
59309;DHT22;48433;53.016;-2.260;2023-08-30T01:33:31;14.60;99.90
59309;DHT22;48433;53.016;-2.260;2023-08-30T01:36:01;14.50;99.90
59309;DHT22;48433;53.016;-2.260;2023-08-30T01:38:34;14.50;99.90
59309;DHT22;48433;53.016;-2.260;2023-08-30T01:41:02;14.60;99.90
59309;DHT22;48433;53.016;-2.260;2023-08-30T01:43:31;14.60;99.90
59309;DHT22;48433;53.016;-2.260;2023-08-30T01:46:00;14.60;99.90
59309;DHT22;48433;53.016;-2.260;2023-08-30T01:48:31;14.60;99.90
59309;DHT22;48433;53.016;-2.260;2023-08-30T01:53:32;14.60;99.90
59309;DHT22;48433;53.016;-2.260;2023-08-30T02:00:56;14.60;99.90
59309;DHT22;48433;53.016;-2.260;2023-08-30T02:03:24;14.60;99.90
59309;DHT22;48433;53.016;-2.260;2023-08-30T02:06:02;14.60;99.90
59309;DHT22;48433;53.016;-2.260;2023-08-30T02:08:40;14.70;99.90
59309;DHT22;48433;53.016;-2.260;2023-08-30T02:11:15;14.60;99.90
59309;DHT22;48433;53.016;-2.260;2023-08-30T02:13:45;14.60;99.90
59309;DHT22;48433;53.016;-2.260;2023-08-30T02:16:13;14.60;99.90
59309;DHT22;48433;53.016;-2.260;2023-08-30T02:18:42;14.50;99.90
59309;DHT22;48433;53.016;-2.260;2023-08-30T02:21:10;14.50;99.90
59309;DHT22;48433;53.016;-2.260;2023-08-30T02:23:38;14.40;99.90
59309;DHT22;48433;53.016;-2.260;2023-08-30T02:26:05;14.40;99.90
59309;DHT22;48433;53.016;-2.260;2023-08-30T02:28:33;14.50;99.90
59309;DHT22;48433;53.016;-2.260;2023-08-30T02:31:01;14.50;99.90
59309;DHT22;48433;53.016;-2.260;2023-08-30T02:33:29;14.60;99.90
59309;DHT22;48433;53.016;-2.260;2023-08-30T02:35:56;14.60;99.90
59309;DHT22;48433;53.016;-2.260;2023-08-30T02:38:24;14.70;99.90
59309;DHT22;48433;53.016;-2.260;2023-08-30T02:40:52;14.70;99.90
59309;DHT22;48433;53.016;-2.260;2023-08-30T02:43:19;14.80;99.90
59309;DHT22;48433;53.016;-2.260;2023-08-30T02:45:47;14.70;99.90
59309;DHT22;48433;53.016;-2.260;2023-08-30T02:48:15;14.70;99.90
59309;DHT22;48433;53.016;-2.260;2023-08-30T02:50:42;14.70;99.90
59309;DHT22;48433;53.016;-2.260;2023-08-30T02:53:10;14.80;99.90
59309;DHT22;48433;53.016;-2.260;2023-08-30T02:55:38;14.70;99.90
59309;DHT22;48433;53.016;-2.260;2023-08-30T02:58:05;14.70;99.90
59309;DHT22;48433;53.016;-2.260;2023-08-30T03:00:33;14.80;99.90
59309;DHT22;48433;53.016;-2.260;2023-08-30T03:03:02;14.70;99.90
59309;DHT22;48433;53.016;-2.260;2023-08-30T03:05:30;14.80;99.90
59309;DHT22;48433;53.016;-2.260;2023-08-30T03:07:57;14.80;99.90
59309;DHT22;48433;53.016;-2.260;2023-08-30T03:10:25;14.80;99.90
59309;DHT22;48433;53.016;-2.260;2023-08-30T03:12:53;14.70;99.90
59309;DHT22;48433;53.016;-2.260;2023-08-30T03:15:20;14.70;99.90
59309;DHT22;48433;53.016;-2.260;2023-08-30T03:17:48;14.70;99.90
59309;DHT22;48433;53.016;-2.260;2023-08-30T03:20:16;14.70;99.90
59309;DHT22;48433;53.016;-2.260;2023-08-30T03:22:43;14.70;99.90
59309;DHT22;48433;53.016;-2.260;2023-08-30T03:25:11;14.70;99.90
59309;DHT22;48433;53.016;-2.260;2023-08-30T03:27:39;14.70;99.90
59309;DHT22;48433;53.016;-2.260;2023-08-30T03:30:07;14.60;99.90
59309;DHT22;48433;53.016;-2.260;2023-08-30T03:32:36;14.50;99.90
59309;DHT22;48433;53.016;-2.260;2023-08-30T03:35:05;14.50;99.90
59309;DHT22;48433;53.016;-2.260;2023-08-30T03:37:33;14.50;99.90
59309;DHT22;48433;53.016;-2.260;2023-08-30T03:40:01;14.50;99.90
59309;DHT22;48433;53.016;-2.260;2023-08-30T03:42:29;14.50;99.90
59309;DHT22;48433;53.016;-2.260;2023-08-30T03:44:57;14.50;99.90
59309;DHT22;48433;53.016;-2.260;2023-08-30T03:47:24;14.60;99.90
59309;DHT22;48433;53.016;-2.260;2023-08-30T03:49:52;14.60;99.90
59309;DHT22;48433;53.016;-2.260;2023-08-30T03:52:20;14.60;99.90
59309;DHT22;48433;53.016;-2.260;2023-08-30T03:54:47;14.60;99.90
59309;DHT22;48433;53.016;-2.260;2023-08-30T03:57:15;14.50;99.90
59309;DHT22;48433;53.016;-2.260;2023-08-30T03:59:42;14.50;99.90
59309;DHT22;48433;53.016;-2.260;2023-08-30T04:02:10;14.50;99.90
59309;DHT22;48433;53.016;-2.260;2023-08-30T04:04:38;14.40;99.90
59309;DHT22;48433;53.016;-2.260;2023-08-30T04:07:05;14.40;99.90
59309;DHT22;48433;53.016;-2.260;2023-08-30T04:09:33;14.40;99.90
59309;DHT22;48433;53.016;-2.260;2023-08-30T04:12:01;14.40;99.90
59309;DHT22;48433;53.016;-2.260;2023-08-30T04:14:28;14.50;99.90
59309;DHT22;48433;53.016;-2.260;2023-08-30T04:16:57;14.50;99.90
59309;DHT22;48433;53.016;-2.260;2023-08-30T04:19:25;14.50;99.90
59309;DHT22;48433;53.016;-2.260;2023-08-30T04:21:52;14.60;99.90
59309;DHT22;48433;53.016;-2.260;2023-08-30T04:24:20;14.60;99.90
59309;DHT22;48433;53.016;-2.260;2023-08-30T04:26:48;14.60;99.90
59309;DHT22;48433;53.016;-2.260;2023-08-30T04:29:18;14.60;99.90
59309;DHT22;48433;53.016;-2.260;2023-08-30T04:31:46;14.70;99.90
59309;DHT22;48433;53.016;-2.260;2023-08-30T04:34:14;14.60;99.90
59309;DHT22;48433;53.016;-2.260;2023-08-30T04:36:43;14.70;99.90
59309;DHT22;48433;53.016;-2.260;2023-08-30T04:39:13;14.60;99.90
59309;DHT22;48433;53.016;-2.260;2023-08-30T04:41:41;14.50;99.90
59309;DHT22;48433;53.016;-2.260;2023-08-30T04:44:09;14.40;99.90
59309;DHT22;48433;53.016;-2.260;2023-08-30T04:46:37;14.40;99.90
59309;DHT22;48433;53.016;-2.260;2023-08-30T04:49:04;14.30;99.90
59309;DHT22;48433;53.016;-2.260;2023-08-30T04:51:33;14.20;99.90
59309;DHT22;48433;53.016;-2.260;2023-08-30T04:54:00;14.10;99.90
59309;DHT22;48433;53.016;-2.260;2023-08-30T04:56:28;14.20;99.90
59309;DHT22;48433;53.016;-2.260;2023-08-30T04:58:56;14.10;99.90
59309;DHT22;48433;53.016;-2.260;2023-08-30T05:01:25;14.00;99.90
59309;DHT22;48433;53.016;-2.260;2023-08-30T05:03:56;14.00;99.90
59309;DHT22;48433;53.016;-2.260;2023-08-30T05:06:24;14.00;99.90
59309;DHT22;48433;53.016;-2.260;2023-08-30T05:08:51;13.90;99.90
59309;DHT22;48433;53.016;-2.260;2023-08-30T05:11:19;13.90;99.90
59309;DHT22;48433;53.016;-2.260;2023-08-30T05:13:47;13.90;99.90
59309;DHT22;48433;53.016;-2.260;2023-08-30T05:16:15;13.90;99.90
59309;DHT22;48433;53.016;-2.260;2023-08-30T05:18:42;13.90;99.90
59309;DHT22;48433;53.016;-2.260;2023-08-30T05:21:10;13.90;99.90
59309;DHT22;48433;53.016;-2.260;2023-08-30T05:23:38;13.90;99.90
59309;DHT22;48433;53.016;-2.260;2023-08-30T05:26:09;13.90;99.90
59309;DHT22;48433;53.016;-2.260;2023-08-30T05:28:37;13.90;99.90
59309;DHT22;48433;53.016;-2.260;2023-08-30T05:31:06;13.90;99.90
59309;DHT22;48433;53.016;-2.260;2023-08-30T05:33:54;13.90;99.90
59309;DHT22;48433;53.016;-2.260;2023-08-30T05:36:44;13.90;99.90
59309;DHT22;48433;53.016;-2.260;2023-08-30T05:39:22;13.90;99.90
59309;DHT22;48433;53.016;-2.260;2023-08-30T05:41:56;13.90;99.90
59309;DHT22;48433;53.016;-2.260;2023-08-30T05:44:23;13.90;99.90
59309;DHT22;48433;53.016;-2.260;2023-08-30T05:46:51;13.90;99.90
59309;DHT22;48433;53.016;-2.260;2023-08-30T05:49:19;14.00;99.90
59309;DHT22;48433;53.016;-2.260;2023-08-30T05:51:47;14.00;99.90
59309;DHT22;48433;53.016;-2.260;2023-08-30T05:54:15;14.00;99.90
59309;DHT22;48433;53.016;-2.260;2023-08-30T05:56:42;14.00;99.90
59309;DHT22;48433;53.016;-2.260;2023-08-30T05:59:10;14.00;99.90
59309;DHT22;48433;53.016;-2.260;2023-08-30T06:01:37;14.00;99.90
59309;DHT22;48433;53.016;-2.260;2023-08-30T06:04:05;14.00;99.90
59309;DHT22;48433;53.016;-2.260;2023-08-30T06:06:33;14.00;99.90
59309;DHT22;48433;53.016;-2.260;2023-08-30T06:09:00;14.00;99.90
59309;DHT22;48433;53.016;-2.260;2023-08-30T06:11:28;14.00;99.90
59309;DHT22;48433;53.016;-2.260;2023-08-30T06:13:55;14.00;99.90
59309;DHT22;48433;53.016;-2.260;2023-08-30T06:16:26;14.00;99.90
59309;DHT22;48433;53.016;-2.260;2023-08-30T06:18:54;14.00;99.90
59309;DHT22;48433;53.016;-2.260;2023-08-30T06:21:21;14.00;99.90
59309;DHT22;48433;53.016;-2.260;2023-08-30T06:23:49;14.10;99.90
59309;DHT22;48433;53.016;-2.260;2023-08-30T06:26:18;14.10;99.90
59309;DHT22;48433;53.016;-2.260;2023-08-30T06:28:45;14.10;99.90
59309;DHT22;48433;53.016;-2.260;2023-08-30T06:31:25;14.10;99.90
59309;DHT22;48433;53.016;-2.260;2023-08-30T06:33:53;14.20;99.90
59309;DHT22;48433;53.016;-2.260;2023-08-30T06:36:21;14.10;99.90
59309;DHT22;48433;53.016;-2.260;2023-08-30T06:38:50;14.20;99.90
59309;DHT22;48433;53.016;-2.260;2023-08-30T06:41:18;14.20;99.90
59309;DHT22;48433;53.016;-2.260;2023-08-30T06:43:45;14.40;99.90
59309;DHT22;48433;53.016;-2.260;2023-08-30T06:46:13;14.40;99.90
59309;DHT22;48433;53.016;-2.260;2023-08-30T06:48:41;14.50;99.90
59309;DHT22;48433;53.016;-2.260;2023-08-30T06:51:09;14.70;99.90
59309;DHT22;48433;53.016;-2.260;2023-08-30T06:53:38;15.00;99.90
59309;DHT22;48433;53.016;-2.260;2023-08-30T06:56:05;15.10;99.90
59309;DHT22;48433;53.016;-2.260;2023-08-30T06:58:33;15.00;99.90
59309;DHT22;48433;53.016;-2.260;2023-08-30T07:01:01;15.10;99.90
59309;DHT22;48433;53.016;-2.260;2023-08-30T07:03:30;15.00;99.90
59309;DHT22;48433;53.016;-2.260;2023-08-30T07:05:58;15.00;99.90
59309;DHT22;48433;53.016;-2.260;2023-08-30T07:08:26;15.00;99.90
59309;DHT22;48433;53.016;-2.260;2023-08-30T07:10:54;15.00;99.90
59309;DHT22;48433;53.016;-2.260;2023-08-30T07:13:21;15.10;99.90
59309;DHT22;48433;53.016;-2.260;2023-08-30T07:15:49;15.10;99.90
59309;DHT22;48433;53.016;-2.260;2023-08-30T07:18:17;15.20;99.90
59309;DHT22;48433;53.016;-2.260;2023-08-30T07:20:44;15.30;99.90
59309;DHT22;48433;53.016;-2.260;2023-08-30T07:23:12;15.30;99.90
59309;DHT22;48433;53.016;-2.260;2023-08-30T07:25:40;15.20;99.90
59309;DHT22;48433;53.016;-2.260;2023-08-30T07:28:08;15.20;99.90
59309;DHT22;48433;53.016;-2.260;2023-08-30T07:30:36;15.30;99.90
59309;DHT22;48433;53.016;-2.260;2023-08-30T07:35:34;15.40;99.90
59309;DHT22;48433;53.016;-2.260;2023-08-30T07:38:02;15.50;99.90
59309;DHT22;48433;53.016;-2.260;2023-08-30T07:40:30;15.60;99.90
59309;DHT22;48433;53.016;-2.260;2023-08-30T07:42:58;15.90;99.90
59309;DHT22;48433;53.016;-2.260;2023-08-30T07:45:30;15.90;99.90
59309;DHT22;48433;53.016;-2.260;2023-08-30T07:47:58;16.10;99.90
59309;DHT22;48433;53.016;-2.260;2023-08-30T07:50:26;16.10;99.90
59309;DHT22;48433;53.016;-2.260;2023-08-30T07:52:53;16.10;99.90
59309;DHT22;48433;53.016;-2.260;2023-08-30T07:55:21;16.20;99.90
59309;DHT22;48433;53.016;-2.260;2023-08-30T07:57:48;16.30;99.90
59309;DHT22;48433;53.016;-2.260;2023-08-30T08:00:16;16.40;99.90
59309;DHT22;48433;53.016;-2.260;2023-08-30T08:02:44;16.40;99.90
59309;DHT22;48433;53.016;-2.260;2023-08-30T08:05:12;16.40;99.90
59309;DHT22;48433;53.016;-2.260;2023-08-30T08:07:42;16.40;99.90
59309;DHT22;48433;53.016;-2.260;2023-08-30T08:10:10;16.40;99.90
59309;DHT22;48433;53.016;-2.260;2023-08-30T08:12:38;16.60;99.90
59309;DHT22;48433;53.016;-2.260;2023-08-30T08:15:06;16.90;99.90
59309;DHT22;48433;53.016;-2.260;2023-08-30T08:17:34;17.10;99.90
59309;DHT22;48433;53.016;-2.260;2023-08-30T08:20:05;17.40;99.90
59309;DHT22;48433;53.016;-2.260;2023-08-30T08:22:33;17.70;99.90
59309;DHT22;48433;53.016;-2.260;2023-08-30T08:25:01;17.90;99.90
59309;DHT22;48433;53.016;-2.260;2023-08-30T08:27:29;18.00;99.90
59309;DHT22;48433;53.016;-2.260;2023-08-30T08:29:57;18.00;99.90
59309;DHT22;48433;53.016;-2.260;2023-08-30T08:32:25;18.00;99.90
59309;DHT22;48433;53.016;-2.260;2023-08-30T08:34:53;18.00;99.90
59309;DHT22;48433;53.016;-2.260;2023-08-30T08:37:20;17.80;99.90
59309;DHT22;48433;53.016;-2.260;2023-08-30T08:39:48;17.70;99.90
59309;DHT22;48433;53.016;-2.260;2023-08-30T08:42:20;17.60;99.90
59309;DHT22;48433;53.016;-2.260;2023-08-30T08:44:50;17.30;99.90
59309;DHT22;48433;53.016;-2.260;2023-08-30T08:47:20;17.30;99.90
59309;DHT22;48433;53.016;-2.260;2023-08-30T08:49:48;17.10;99.90
59309;DHT22;48433;53.016;-2.260;2023-08-30T08:52:17;17.00;99.90
59309;DHT22;48433;53.016;-2.260;2023-08-30T08:54:58;16.80;99.90
59309;DHT22;48433;53.016;-2.260;2023-08-30T08:57:28;16.80;99.90
59309;DHT22;48433;53.016;-2.260;2023-08-30T08:59:59;16.90;99.90
59309;DHT22;48433;53.016;-2.260;2023-08-30T09:02:27;17.10;99.90
59309;DHT22;48433;53.016;-2.260;2023-08-30T09:04:57;17.70;99.90
59309;DHT22;48433;53.016;-2.260;2023-08-30T09:07:27;18.10;99.90
59309;DHT22;48433;53.016;-2.260;2023-08-30T09:09:57;18.40;99.90
59309;DHT22;48433;53.016;-2.260;2023-08-30T09:12:25;18.60;99.90
59309;DHT22;48433;53.016;-2.260;2023-08-30T09:14:55;18.90;99.90
59309;DHT22;48433;53.016;-2.260;2023-08-30T09:17:23;19.10;99.90
59309;DHT22;48433;53.016;-2.260;2023-08-30T09:19:50;19.40;99.90
59309;DHT22;48433;53.016;-2.260;2023-08-30T09:22:18;19.70;99.90
59309;DHT22;48433;53.016;-2.260;2023-08-30T09:24:46;19.70;99.90
59309;DHT22;48433;53.016;-2.260;2023-08-30T09:27:13;19.60;99.90
59309;DHT22;48433;53.016;-2.260;2023-08-30T09:29:41;19.60;99.90
59309;DHT22;48433;53.016;-2.260;2023-08-30T09:32:13;19.60;99.90
59309;DHT22;48433;53.016;-2.260;2023-08-30T09:34:45;19.80;99.90
59309;DHT22;48433;53.016;-2.260;2023-08-30T09:37:23;19.90;99.90
59309;DHT22;48433;53.016;-2.260;2023-08-30T09:39:51;19.90;99.90
59309;DHT22;48433;53.016;-2.260;2023-08-30T09:42:19;19.80;99.90
59309;DHT22;48433;53.016;-2.260;2023-08-30T09:44:47;19.50;99.90
59309;DHT22;48433;53.016;-2.260;2023-08-30T09:47:16;19.30;99.90
59309;DHT22;48433;53.016;-2.260;2023-08-30T09:49:45;19.20;99.90
59309;DHT22;48433;53.016;-2.260;2023-08-30T09:52:16;19.20;99.90
59309;DHT22;48433;53.016;-2.260;2023-08-30T09:54:45;19.60;99.90
59309;DHT22;48433;53.016;-2.260;2023-08-30T09:57:13;20.30;99.90
59309;DHT22;48433;53.016;-2.260;2023-08-30T09:59:42;21.90;99.90
59309;DHT22;48433;53.016;-2.260;2023-08-30T10:02:10;23.70;99.90
59309;DHT22;48433;53.016;-2.260;2023-08-30T10:04:38;24.60;98.90
59309;DHT22;48433;53.016;-2.260;2023-08-30T10:07:09;24.60;98.90
59309;DHT22;48433;53.016;-2.260;2023-08-30T10:09:38;23.90;98.40
59309;DHT22;48433;53.016;-2.260;2023-08-30T10:12:22;24.50;98.10
59309;DHT22;48433;53.016;-2.260;2023-08-30T10:14:50;23.80;98.30
59309;DHT22;48433;53.016;-2.260;2023-08-30T10:17:18;23.30;99.90
59309;DHT22;48433;53.016;-2.260;2023-08-30T10:19:49;22.20;99.90
59309;DHT22;48433;53.016;-2.260;2023-08-30T10:22:18;19.30;99.90
59309;DHT22;48433;53.016;-2.260;2023-08-30T10:25:06;19.50;99.90
59309;DHT22;48433;53.016;-2.260;2023-08-30T10:27:39;19.00;99.90
59309;DHT22;48433;53.016;-2.260;2023-08-30T10:30:09;19.30;99.90
59309;DHT22;48433;53.016;-2.260;2023-08-30T10:32:41;20.40;99.90
59309;DHT22;48433;53.016;-2.260;2023-08-30T10:35:13;21.90;99.90
59309;DHT22;48433;53.016;-2.260;2023-08-30T10:37:41;22.30;99.90
59309;DHT22;48433;53.016;-2.260;2023-08-30T10:40:09;22.50;99.90
59309;DHT22;48433;53.016;-2.260;2023-08-30T10:42:37;22.70;99.90
59309;DHT22;48433;53.016;-2.260;2023-08-30T10:45:06;23.90;99.90
59309;DHT22;48433;53.016;-2.260;2023-08-30T10:47:38;25.10;99.90
59309;DHT22;48433;53.016;-2.260;2023-08-30T10:50:09;26.80;99.90
59309;DHT22;48433;53.016;-2.260;2023-08-30T10:52:38;27.90;99.50
59309;DHT22;48433;53.016;-2.260;2023-08-30T10:55:10;28.50;97.00
59309;DHT22;48433;53.016;-2.260;2023-08-30T10:57:42;28.70;95.80
59309;DHT22;48433;53.016;-2.260;2023-08-30T11:02:47;27.60;94.70
59309;DHT22;48433;53.016;-2.260;2023-08-30T11:05:17;27.30;94.20
59309;DHT22;48433;53.016;-2.260;2023-08-30T11:07:45;27.20;93.60
59309;DHT22;48433;53.016;-2.260;2023-08-30T11:10:14;26.80;93.50
59309;DHT22;48433;53.016;-2.260;2023-08-30T11:12:42;27.00;93.60
59309;DHT22;48433;53.016;-2.260;2023-08-30T11:15:11;28.40;92.20
59309;DHT22;48433;53.016;-2.260;2023-08-30T11:17:41;29.40;91.20
59309;DHT22;48433;53.016;-2.260;2023-08-30T11:20:12;30.80;89.40
59309;DHT22;48433;53.016;-2.260;2023-08-30T11:22:43;32.20;84.50
59309;DHT22;48433;53.016;-2.260;2023-08-30T11:25:12;33.50;75.60
59309;DHT22;48433;53.016;-2.260;2023-08-30T11:27:41;34.20;74.00
59309;DHT22;48433;53.016;-2.260;2023-08-30T11:30:10;35.00;70.40
59309;DHT22;48433;53.016;-2.260;2023-08-30T11:32:43;35.10;65.40
59309;DHT22;48433;53.016;-2.260;2023-08-30T11:35:11;34.00;61.80
59309;DHT22;48433;53.016;-2.260;2023-08-30T11:37:40;33.80;62.80
59309;DHT22;48433;53.016;-2.260;2023-08-30T11:40:11;33.60;62.10
59309;DHT22;48433;53.016;-2.260;2023-08-30T11:42:39;32.70;61.50
59309;DHT22;48433;53.016;-2.260;2023-08-30T11:45:08;30.80;61.70
59309;DHT22;48433;53.016;-2.260;2023-08-30T11:47:36;30.20;64.70
59309;DHT22;48433;53.016;-2.260;2023-08-30T11:50:04;30.00;64.10
59309;DHT22;48433;53.016;-2.260;2023-08-30T11:52:33;30.20;63.80
59309;DHT22;48433;53.016;-2.260;2023-08-30T11:55:03;30.60;61.60
59309;DHT22;48433;53.016;-2.260;2023-08-30T11:57:36;30.80;62.40
59309;DHT22;48433;53.016;-2.260;2023-08-30T12:00:08;30.80;61.10
59309;DHT22;48433;53.016;-2.260;2023-08-30T12:02:39;30.40;61.10
59309;DHT22;48433;53.016;-2.260;2023-08-30T12:05:11;30.50;61.10
59309;DHT22;48433;53.016;-2.260;2023-08-30T12:07:39;30.60;60.90
59309;DHT22;48433;53.016;-2.260;2023-08-30T12:10:09;30.80;60.70
59309;DHT22;48433;53.016;-2.260;2023-08-30T12:12:38;31.30;59.90
59309;DHT22;48433;53.016;-2.260;2023-08-30T12:15:09;31.60;58.00
59309;DHT22;48433;53.016;-2.260;2023-08-30T12:17:37;31.30;57.90
59309;DHT22;48433;53.016;-2.260;2023-08-30T12:20:05;30.50;58.50
59309;DHT22;48433;53.016;-2.260;2023-08-30T12:22:39;29.90;59.40
59309;DHT22;48433;53.016;-2.260;2023-08-30T12:25:19;29.60;59.20
59309;DHT22;48433;53.016;-2.260;2023-08-30T12:27:47;29.70;59.40
59309;DHT22;48433;53.016;-2.260;2023-08-30T12:30:16;29.60;58.00
59309;DHT22;48433;53.016;-2.260;2023-08-30T12:32:44;30.00;58.90
59309;DHT22;48433;53.016;-2.260;2023-08-30T12:35:12;31.50;57.10
59309;DHT22;48433;53.016;-2.260;2023-08-30T12:37:41;32.40;56.60
59309;DHT22;48433;53.016;-2.260;2023-08-30T12:40:09;33.30;55.10
59309;DHT22;48433;53.016;-2.260;2023-08-30T12:42:37;33.80;54.90
59309;DHT22;48433;53.016;-2.260;2023-08-30T12:45:05;34.80;51.80
59309;DHT22;48433;53.016;-2.260;2023-08-30T12:47:33;34.90;51.50
59309;DHT22;48433;53.016;-2.260;2023-08-30T12:50:01;34.10;51.60
59309;DHT22;48433;53.016;-2.260;2023-08-30T12:52:29;32.70;52.20
59309;DHT22;48433;53.016;-2.260;2023-08-30T12:54:57;30.60;54.30
59309;DHT22;48433;53.016;-2.260;2023-08-30T12:57:24;29.70;55.60
59309;DHT22;48433;53.016;-2.260;2023-08-30T12:59:54;28.50;57.50
59309;DHT22;48433;53.016;-2.260;2023-08-30T13:02:21;27.30;59.20
59309;DHT22;48433;53.016;-2.260;2023-08-30T13:04:49;26.20;61.90
59309;DHT22;48433;53.016;-2.260;2023-08-30T13:07:17;26.00;63.30
59309;DHT22;48433;53.016;-2.260;2023-08-30T13:09:44;26.10;64.30
59309;DHT22;48433;53.016;-2.260;2023-08-30T13:12:12;26.10;63.80
59309;DHT22;48433;53.016;-2.260;2023-08-30T13:14:40;25.60;63.70
59309;DHT22;48433;53.016;-2.260;2023-08-30T13:17:08;25.30;64.80
59309;DHT22;48433;53.016;-2.260;2023-08-30T13:19:36;24.80;66.40
59309;DHT22;48433;53.016;-2.260;2023-08-30T13:22:06;24.30;68.30
59309;DHT22;48433;53.016;-2.260;2023-08-30T13:24:34;24.10;69.40
59309;DHT22;48433;53.016;-2.260;2023-08-30T13:27:02;24.00;69.80
59309;DHT22;48433;53.016;-2.260;2023-08-30T13:29:30;24.00;70.20
59309;DHT22;48433;53.016;-2.260;2023-08-30T13:31:58;24.10;70.50
59309;DHT22;48433;53.016;-2.260;2023-08-30T13:34:26;24.30;69.80
59309;DHT22;48433;53.016;-2.260;2023-08-30T13:36:53;24.40;71.00
59309;DHT22;48433;53.016;-2.260;2023-08-30T13:39:21;24.40;70.40
59309;DHT22;48433;53.016;-2.260;2023-08-30T13:41:49;24.50;70.80
59309;DHT22;48433;53.016;-2.260;2023-08-30T13:44:17;24.40;70.40
59309;DHT22;48433;53.016;-2.260;2023-08-30T13:46:44;24.30;71.10
59309;DHT22;48433;53.016;-2.260;2023-08-30T13:49:15;24.10;71.70
59309;DHT22;48433;53.016;-2.260;2023-08-30T13:51:44;24.00;72.90
59309;DHT22;48433;53.016;-2.260;2023-08-30T13:54:12;24.00;73.80
59309;DHT22;48433;53.016;-2.260;2023-08-30T13:56:40;23.90;74.40
59309;DHT22;48433;53.016;-2.260;2023-08-30T13:59:11;23.90;74.00
59309;DHT22;48433;53.016;-2.260;2023-08-30T14:01:40;23.80;73.50
59309;DHT22;48433;53.016;-2.260;2023-08-30T14:04:08;23.50;72.40
59309;DHT22;48433;53.016;-2.260;2023-08-30T14:06:36;23.40;73.20
59309;DHT22;48433;53.016;-2.260;2023-08-30T14:09:04;23.20;74.00
59309;DHT22;48433;53.016;-2.260;2023-08-30T14:11:34;22.60;75.70
59309;DHT22;48433;53.016;-2.260;2023-08-30T14:14:02;22.50;76.60
59309;DHT22;48433;53.016;-2.260;2023-08-30T14:16:30;22.40;77.50
59309;DHT22;48433;53.016;-2.260;2023-08-30T14:18:58;22.40;77.70
59309;DHT22;48433;53.016;-2.260;2023-08-30T14:21:27;22.30;77.90
59309;DHT22;48433;53.016;-2.260;2023-08-30T14:23:55;22.20;77.90
59309;DHT22;48433;53.016;-2.260;2023-08-30T14:26:22;22.20;78.60
59309;DHT22;48433;53.016;-2.260;2023-08-30T14:28:50;22.00;78.80
59309;DHT22;48433;53.016;-2.260;2023-08-30T14:31:18;22.00;79.40
59309;DHT22;48433;53.016;-2.260;2023-08-30T14:33:46;21.90;79.20
59309;DHT22;48433;53.016;-2.260;2023-08-30T14:36:14;21.90;79.70
59309;DHT22;48433;53.016;-2.260;2023-08-30T14:38:43;21.80;79.90
59309;DHT22;48433;53.016;-2.260;2023-08-30T14:41:11;21.70;80.50
59309;DHT22;48433;53.016;-2.260;2023-08-30T14:43:40;22.00;79.60
59309;DHT22;48433;53.016;-2.260;2023-08-30T14:46:08;21.90;80.20
59309;DHT22;48433;53.016;-2.260;2023-08-30T14:48:41;22.10;80.10
59309;DHT22;48433;53.016;-2.260;2023-08-30T14:51:09;22.20;80.00
59309;DHT22;48433;53.016;-2.260;2023-08-30T14:53:36;22.50;79.60
59309;DHT22;48433;53.016;-2.260;2023-08-30T14:56:04;22.40;80.30
59309;DHT22;48433;53.016;-2.260;2023-08-30T14:58:35;22.40;80.30
59309;DHT22;48433;53.016;-2.260;2023-08-30T15:01:04;22.40;80.20
59309;DHT22;48433;53.016;-2.260;2023-08-30T15:03:32;22.40;80.60
59309;DHT22;48433;53.016;-2.260;2023-08-30T15:06:00;22.40;81.20
59309;DHT22;48433;53.016;-2.260;2023-08-30T15:08:28;22.50;81.50
59309;DHT22;48433;53.016;-2.260;2023-08-30T15:10:57;22.50;81.60
59309;DHT22;48433;53.016;-2.260;2023-08-30T15:13:25;22.50;80.80
59309;DHT22;48433;53.016;-2.260;2023-08-30T15:15:53;22.50;81.40
59309;DHT22;48433;53.016;-2.260;2023-08-30T15:18:22;22.50;81.50
59309;DHT22;48433;53.016;-2.260;2023-08-30T15:20:53;22.50;82.00
59309;DHT22;48433;53.016;-2.260;2023-08-30T15:23:21;22.50;82.80
59309;DHT22;48433;53.016;-2.260;2023-08-30T15:25:49;22.60;81.70
59309;DHT22;48433;53.016;-2.260;2023-08-30T15:28:17;22.70;80.70
59309;DHT22;48433;53.016;-2.260;2023-08-30T15:30:45;22.60;80.30
59309;DHT22;48433;53.016;-2.260;2023-08-30T15:33:13;22.60;80.40
59309;DHT22;48433;53.016;-2.260;2023-08-30T15:35:47;22.50;79.40
59309;DHT22;48433;53.016;-2.260;2023-08-30T15:38:15;22.50;80.00
59309;DHT22;48433;53.016;-2.260;2023-08-30T15:40:43;22.40;79.70